Time;durP1;ratioP1;P1;durP2;ratioP2;P2;SDS_P1;SDS_P2;PMS_P1;PMS_P2;Temp;Humidity;BMP_temperature;BMP_pressure;BME280_temperature;BME280_humidity;BME280_pressure;Samples;Min_cycle;Max_cycle;Signal;HPM_P1;HPM_P2
2023/01/21 00:01:01;;;;;;;82.70;33.67;;;;;;;;;;5065166;28;20064;-59
2023/01/21 00:03:26;;;;;;;76.60;27.98;;;;;;;;;;5064268;28;20024;-59
2023/01/21 00:05:51;;;;;;;80.78;29.88;;;;;;;;;;5065852;28;20024;-59
2023/01/21 00:08:17;;;;;;;74.00;28.17;;;;;;;;;;5063641;28;20044;-59
2023/01/21 00:10:42;;;;;;;67.85;26.77;;;;;;;;;;5061486;28;20486;-59
2023/01/21 00:13:07;;;;;;;72.47;27.88;;;;;;;;;;5065173;28;20447;-59
2023/01/21 00:15:34;;;;;;;91.43;29.77;;;;;;;;;;5063706;28;20025;-59
2023/01/21 00:17:59;;;;;;;68.72;24.15;;;;;;;;;;5064295;28;20032;-59
2023/01/21 00:20:24;;;;;;;64.65;25.58;;;;;;;;;;5064312;28;20029;-59
2023/01/21 00:22:52;;;;;;;69.55;27.08;;;;;;;;;;5065031;28;20055;-59
2023/01/21 00:25:17;;;;;;;63.97;24.60;;;;;;;;;;5062858;28;20074;-59
2023/01/21 00:27:43;;;;;;;64.15;23.67;;;;;;;;;;5065135;28;20559;-59
2023/01/21 00:30:09;;;;;;;70.72;26.73;;;;;;;;;;5062722;28;20309;-58
2023/01/21 00:32:34;;;;;;;53.75;21.98;;;;;;;;;;5064159;28;20348;-59
2023/01/21 00:34:59;;;;;;;58.22;24.35;;;;;;;;;;5064406;28;20066;-59
2023/01/21 00:37:25;;;;;;;61.47;23.58;;;;;;;;;;5063694;28;20029;-57
2023/01/21 00:39:50;;;;;;;61.28;24.15;;;;;;;;;;5063014;28;20036;-58
2023/01/21 00:42:15;;;;;;;58.47;24.00;;;;;;;;;;5061400;28;20055;-58
2023/01/21 00:44:40;;;;;;;55.80;21.08;;;;;;;;;;5060784;28;20355;-57
2023/01/21 00:47:06;;;;;;;60.55;23.38;;;;;;;;;;5064533;28;20616;-59
2023/01/21 00:49:31;;;;;;;53.47;20.70;;;;;;;;;;5063991;28;20041;-59
2023/01/21 00:51:56;;;;;;;54.17;23.65;;;;;;;;;;5064864;28;20033;-59
2023/01/21 00:54:22;;;;;;;52.22;21.77;;;;;;;;;;5064788;28;20024;-59
2023/01/21 00:56:47;;;;;;;54.95;21.45;;;;;;;;;;5063875;28;20033;-59
2023/01/21 00:59:12;;;;;;;48.53;20.15;;;;;;;;;;5064999;28;20024;-59
2023/01/21 01:01:40;;;;;;;36.03;15.30;;;;;;;;;;5063034;28;20024;-59
2023/01/21 01:04:05;;;;;;;51.45;22.02;;;;;;;;;;5064680;28;20133;-58
2023/01/21 01:06:31;;;;;;;49.45;22.08;;;;;;;;;;5061852;28;20463;-59
2023/01/21 01:08:59;;;;;;;45.00;17.27;;;;;;;;;;5064492;28;20056;-60
2023/01/21 01:11:25;;;;;;;51.53;20.55;;;;;;;;;;5062420;28;20036;-59
2023/01/21 01:13:51;;;;;;;48.08;20.48;;;;;;;;;;5063389;28;20050;-59
2023/01/21 01:16:16;;;;;;;45.72;20.52;;;;;;;;;;5065195;28;20029;-59
2023/01/21 01:18:41;;;;;;;40.92;16.67;;;;;;;;;;5064236;28;20132;-59
2023/01/21 01:21:09;;;;;;;55.80;21.67;;;;;;;;;;5064414;28;20039;-59
2023/01/21 01:23:35;;;;;;;53.63;21.38;;;;;;;;;;5063579;28;20021;-59
2023/01/21 01:26:01;;;;;;;51.70;21.35;;;;;;;;;;5063974;28;20603;-59
2023/01/21 01:28:26;;;;;;;53.47;21.60;;;;;;;;;;5064905;28;20039;-59
2023/01/21 01:30:51;;;;;;;50.53;21.55;;;;;;;;;;5064121;28;20395;-59
2023/01/21 01:33:18;;;;;;;53.67;20.77;;;;;;;;;;5065604;28;20078;-59
2023/01/21 01:35:45;;;;;;;52.55;20.95;;;;;;;;;;5068963;28;20028;-59
2023/01/21 01:38:12;;;;;;;49.58;19.92;;;;;;;;;;5067518;28;20107;-59
2023/01/21 01:40:39;;;;;;;52.22;21.00;;;;;;;;;;5068196;28;20028;-59
2023/01/21 01:43:05;;;;;;;35.20;16.23;;;;;;;;;;5062053;28;20446;-59
2023/01/21 01:45:30;;;;;;;41.80;17.02;;;;;;;;;;5059508;28;20136;-59
2023/01/21 01:47:59;;;;;;;46.95;19.88;;;;;;;;;;5067482;28;20400;-59
2023/01/21 01:50:25;;;;;;;40.58;17.52;;;;;;;;;;5067447;28;20492;-59
2023/01/21 01:52:51;;;;;;;41.20;17.40;;;;;;;;;;5068489;28;20012;-59
2023/01/21 01:55:16;;;;;;;44.38;18.80;;;;;;;;;;5063917;28;20040;-59
2023/01/21 01:57:42;;;;;;;43.97;18.58;;;;;;;;;;5065471;28;20096;-58
2023/01/21 02:00:08;;;;;;;47.13;19.30;;;;;;;;;;5065808;28;20119;-59
2023/01/21 02:02:33;;;;;;;52.50;19.30;;;;;;;;;;5067457;28;20028;-59
2023/01/21 02:04:59;;;;;;;36.00;17.27;;;;;;;;;;5065478;28;20024;-60
2023/01/21 02:07:25;;;;;;;50.90;20.30;;;;;;;;;;5066229;28;20024;-59
2023/01/21 02:09:51;;;;;;;39.80;16.38;;;;;;;;;;5074231;28;20387;-59
2023/01/21 02:12:16;;;;;;;39.78;17.08;;;;;;;;;;5067884;28;20673;-59
2023/01/21 02:14:42;;;;;;;37.65;15.60;;;;;;;;;;5066080;28;20027;-59
2023/01/21 02:17:07;;;;;;;36.05;15.10;;;;;;;;;;5067387;28;20055;-59
2023/01/21 02:19:45;;;;;;;35.03;14.63;;;;;;;;;;5066762;28;20213;-59
2023/01/21 02:22:29;;;;;;;41.42;17.88;;;;;;;;;;5067296;28;20037;-59
2023/01/21 02:24:54;;;;;;;49.25;16.40;;;;;;;;;;5064241;28;20032;-59
2023/01/21 02:27:35;;;;;;;37.85;15.90;;;;;;;;;;5067377;28;20028;-59
2023/01/21 02:30:00;;;;;;;37.38;16.13;;;;;;;;;;5065794;28;20403;-59
2023/01/21 02:32:25;;;;;;;44.58;17.15;;;;;;;;;;5067153;28;20712;-58
2023/01/21 02:34:54;;;;;;;37.53;15.38;;;;;;;;;;5066382;28;20032;-59
2023/01/21 02:37:22;;;;;;;40.85;15.85;;;;;;;;;;5064017;28;20020;-58
2023/01/21 02:39:54;;;;;;;36.42;15.48;;;;;;;;;;5065592;28;20036;-58
2023/01/21 02:42:24;;;;;;;56.53;17.33;;;;;;;;;;5065335;28;20139;-58
2023/01/21 02:44:59;;;;;;;46.70;16.58;;;;;;;;;;5066371;28;20032;-58
2023/01/21 02:47:24;;;;;;;35.97;14.48;;;;;;;;;;5066239;28;20125;-58
2023/01/21 02:49:55;;;;;;;43.58;16.17;;;;;;;;;;5066054;28;20483;-58
2023/01/21 02:52:21;;;;;;;44.83;17.80;;;;;;;;;;5065322;28;20043;-58
2023/01/21 02:54:47;;;;;;;51.05;18.15;;;;;;;;;;5067498;28;20035;-58
2023/01/21 02:57:13;;;;;;;46.47;17.42;;;;;;;;;;5065878;28;20099;-58
2023/01/21 02:59:39;;;;;;;40.53;16.17;;;;;;;;;;5063523;28;20082;-58
2023/01/21 03:02:07;;;;;;;46.30;17.35;;;;;;;;;;5063278;28;20522;-59
2023/01/21 03:04:47;;;;;;;41.70;15.57;;;;;;;;;;5065873;28;20211;-58
2023/01/21 03:07:25;;;;;;;35.75;14.32;;;;;;;;;;5067034;28;20032;-59
2023/01/21 03:09:50;;;;;;;33.58;13.88;;;;;;;;;;5063454;28;20541;-58
2023/01/21 03:12:19;;;;;;;39.78;15.10;;;;;;;;;;5062583;28;20056;-58
2023/01/21 03:17:41;;;;;;;51.13;17.65;;;;;;;;;;5065416;28;20070;-59
2023/01/21 03:20:07;;;;;;;48.25;17.40;;;;;;;;;;5063668;28;20039;-58
2023/01/21 03:22:33;;;;;;;50.45;16.17;;;;;;;;;;5064236;28;20016;-58
2023/01/21 03:24:59;;;;;;;53.50;18.20;;;;;;;;;;5065100;28;20099;-58
2023/01/21 03:27:25;;;;;;;48.80;17.58;;;;;;;;;;5064881;28;20394;-58
2023/01/21 03:29:51;;;;;;;45.85;17.35;;;;;;;;;;5065487;28;20233;-59
2023/01/21 03:32:16;;;;;;;55.22;19.25;;;;;;;;;;5063944;28;20431;-58
2023/01/21 03:34:43;;;;;;;54.05;17.73;;;;;;;;;;5063003;28;20062;-58
2023/01/21 03:37:08;;;;;;;52.47;18.50;;;;;;;;;;5063995;28;20900;-58
2023/01/21 03:39:56;;;;;;;69.57;23.00;;;;;;;;;;5065985;28;20031;-58
2023/01/21 03:42:22;;;;;;;62.53;18.80;;;;;;;;;;5061527;28;20596;-58
2023/01/21 03:44:47;;;;;;;59.45;18.83;;;;;;;;;;5059313;28;20020;-58
2023/01/21 03:47:12;;;;;;;57.10;19.50;;;;;;;;;;5065570;28;20012;-59
2023/01/21 03:49:43;;;;;;;48.05;16.35;;;;;;;;;;5064967;28;20040;-58
2023/01/21 03:52:08;;;;;;;52.15;17.13;;;;;;;;;;5065112;28;20032;-59
2023/01/21 03:54:33;;;;;;;53.85;17.45;;;;;;;;;;5050106;28;20560;-58
2023/01/21 03:56:58;;;;;;;74.10;22.42;;;;;;;;;;5063526;28;20081;-58
2023/01/21 03:59:24;;;;;;;71.13;20.75;;;;;;;;;;5065733;28;20028;-58
2023/01/21 04:01:49;;;;;;;69.47;23.17;;;;;;;;;;5063506;28;20032;-59
2023/01/21 04:04:14;;;;;;;71.90;20.95;;;;;;;;;;5065296;28;20553;-58
2023/01/21 04:06:39;;;;;;;69.38;23.15;;;;;;;;;;5065933;28;20028;-59
2023/01/21 04:09:05;;;;;;;75.47;24.13;;;;;;;;;;5064587;28;20450;-59
2023/01/21 04:11:30;;;;;;;75.68;24.17;;;;;;;;;;5065150;28;20062;-58
2023/01/21 04:13:55;;;;;;;78.18;22.33;;;;;;;;;;5065283;28;20017;-58
2023/01/21 04:16:20;;;;;;;63.70;20.48;;;;;;;;;;5065294;28;20029;-58
2023/01/21 04:18:46;;;;;;;66.05;21.35;;;;;;;;;;5065086;28;20031;-58
2023/01/21 04:21:11;;;;;;;56.72;20.33;;;;;;;;;;5063050;28;20025;-58
2023/01/21 04:23:37;;;;;;;75.82;23.55;;;;;;;;;;5065489;28;20036;-58
2023/01/21 04:26:02;;;;;;;64.90;20.20;;;;;;;;;;5062442;28;20017;-58
2023/01/21 04:28:27;;;;;;;81.85;22.38;;;;;;;;;;5062934;28;20316;-58
2023/01/21 04:30:52;;;;;;;67.93;21.73;;;;;;;;;;5063932;28;20036;-59
2023/01/21 04:33:17;;;;;;;67.40;22.23;;;;;;;;;;5064332;28;20029;-58
2023/01/21 04:35:43;;;;;;;57.92;19.23;;;;;;;;;;5078212;28;20494;-58
2023/01/21 04:38:08;;;;;;;76.32;21.35;;;;;;;;;;5065106;28;20108;-58
2023/01/21 04:40:33;;;;;;;72.97;21.52;;;;;;;;;;5062346;28;20028;-58
2023/01/21 04:42:59;;;;;;;70.30;21.30;;;;;;;;;;5063652;28;20033;-58
2023/01/21 04:45:24;;;;;;;70.15;21.50;;;;;;;;;;5065041;28;20063;-58
2023/01/21 04:47:49;;;;;;;77.07;23.63;;;;;;;;;;5065284;28;20526;-58
2023/01/21 04:50:14;;;;;;;74.47;23.08;;;;;;;;;;5064734;28;20407;-59
2023/01/21 04:52:40;;;;;;;76.78;22.67;;;;;;;;;;5063212;28;20032;-58
2023/01/21 04:55:05;;;;;;;95.63;25.05;;;;;;;;;;5065115;28;20021;-58
2023/01/21 04:57:31;;;;;;;92.35;25.25;;;;;;;;;;5064724;28;20066;-58
2023/01/21 04:59:56;;;;;;;81.78;25.25;;;;;;;;;;5063937;28;20107;-58
2023/01/21 05:02:21;;;;;;;82.07;25.75;;;;;;;;;;5065134;28;20415;-59
2023/01/21 05:04:46;;;;;;;85.32;26.33;;;;;;;;;;5064624;28;20056;-58
2023/01/21 05:07:12;;;;;;;84.82;26.20;;;;;;;;;;5065226;28;20424;-59
2023/01/21 05:09:37;;;;;;;80.40;22.10;;;;;;;;;;5067709;28;20524;-59
2023/01/21 05:12:02;;;;;;;80.07;23.67;;;;;;;;;;5067564;28;20016;-59
2023/01/21 05:14:28;;;;;;;76.82;22.05;;;;;;;;;;5068861;28;20024;-59
2023/01/21 05:16:53;;;;;;;86.60;23.92;;;;;;;;;;5066941;28;20036;-59
2023/01/21 05:19:18;;;;;;;77.95;23.70;;;;;;;;;;5066984;28;20369;-59
2023/01/21 05:21:43;;;;;;;89.63;25.73;;;;;;;;;;5049178;28;20074;-59
2023/01/21 05:24:08;;;;;;;71.60;20.65;;;;;;;;;;5066888;28;20026;-59
2023/01/21 05:26:34;;;;;;;72.18;22.27;;;;;;;;;;5068258;28;20028;-59
2023/01/21 05:28:59;;;;;;;70.03;20.60;;;;;;;;;;5068132;28;20028;-59
2023/01/21 05:31:24;;;;;;;77.15;21.23;;;;;;;;;;5068789;28;20032;-59
2023/01/21 05:33:49;;;;;;;68.80;20.92;;;;;;;;;;5068147;28;20027;-59
2023/01/21 05:36:14;;;;;;;57.08;18.50;;;;;;;;;;5065889;28;20036;-59
2023/01/21 05:38:40;;;;;;;53.05;16.17;;;;;;;;;;5049493;28;20426;-59
2023/01/21 05:41:05;;;;;;;59.42;18.80;;;;;;;;;;5067458;28;20487;-58
2023/01/21 05:43:30;;;;;;;52.97;20.50;;;;;;;;;;5063146;28;20032;-59
2023/01/21 05:45:55;;;;;;;81.15;24.63;;;;;;;;;;5065991;28;20027;-59
2023/01/21 05:48:21;;;;;;;82.65;24.38;;;;;;;;;;5067828;28;20024;-59
2023/01/21 05:50:46;;;;;;;96.43;25.35;;;;;;;;;;5068261;28;20032;-59
2023/01/21 05:53:11;;;;;;;91.05;26.17;;;;;;;;;;5068170;28;20024;-59
2023/01/21 05:55:37;;;;;;;97.57;27.63;;;;;;;;;;5067008;28;20036;-59
2023/01/21 05:58:02;;;;;;;82.05;24.00;;;;;;;;;;5067080;28;20028;-58
2023/01/21 06:00:27;;;;;;;69.95;20.08;;;;;;;;;;5067491;28;20047;-58
2023/01/21 06:02:52;;;;;;;75.57;23.55;;;;;;;;;;5066661;28;20108;-58
2023/01/21 06:05:18;;;;;;;79.60;25.40;;;;;;;;;;5067138;28;20019;-58
2023/01/21 06:07:43;;;;;;;77.88;23.95;;;;;;;;;;5067978;28;20418;-58
2023/01/21 06:10:08;;;;;;;84.75;23.90;;;;;;;;;;5067580;28;20470;-58
2023/01/21 06:12:34;;;;;;;77.53;23.08;;;;;;;;;;5066049;28;20501;-58
2023/01/21 06:14:59;;;;;;;74.80;22.98;;;;;;;;;;5066742;28;20029;-58
2023/01/21 06:17:25;;;;;;;80.72;23.73;;;;;;;;;;5067759;28;20058;-59
2023/01/21 06:19:50;;;;;;;65.97;22.10;;;;;;;;;;5064079;28;20013;-59
2023/01/21 06:22:15;;;;;;;67.97;21.77;;;;;;;;;;5067705;28;20043;-58
2023/01/21 06:24:40;;;;;;;71.47;21.85;;;;;;;;;;5063235;28;20027;-58
2023/01/21 06:27:06;;;;;;;59.47;19.63;;;;;;;;;;5067324;28;20047;-58
2023/01/21 06:29:31;;;;;;;68.30;22.20;;;;;;;;;;5067495;28;20100;-58
2023/01/21 06:31:56;;;;;;;77.28;22.10;;;;;;;;;;5065257;28;20364;-59
2023/01/21 06:34:21;;;;;;;73.97;25.80;;;;;;;;;;5067068;28;20516;-58
2023/01/21 06:36:46;;;;;;;117.72;35.00;;;;;;;;;;5066064;28;20507;-58
2023/01/21 06:39:12;;;;;;;119.80;31.17;;;;;;;;;;5065077;28;20025;-58
2023/01/21 06:41:37;;;;;;;100.75;31.73;;;;;;;;;;5061897;28;20021;-58
2023/01/21 06:44:02;;;;;;;76.78;27.38;;;;;;;;;;5066745;28;20054;-58
2023/01/21 06:46:28;;;;;;;92.78;28.98;;;;;;;;;;5062416;28;20031;-58
2023/01/21 06:48:53;;;;;;;67.63;26.10;;;;;;;;;;5063154;28;20538;-58
2023/01/21 06:51:18;;;;;;;71.57;24.40;;;;;;;;;;5067331;28;20064;-58
2023/01/21 06:53:43;;;;;;;91.88;27.90;;;;;;;;;;5065560;28;20028;-58
2023/01/21 06:56:08;;;;;;;105.20;29.60;;;;;;;;;;5066294;28;20036;-58
2023/01/21 06:58:34;;;;;;;89.45;28.08;;;;;;;;;;5066727;28;20059;-58
2023/01/21 07:00:59;;;;;;;79.10;25.98;;;;;;;;;;5065690;28;20028;-57
2023/01/21 07:03:24;;;;;;;83.75;24.90;;;;;;;;;;5063422;28;20080;-58
2023/01/21 07:05:49;;;;;;;82.70;24.65;;;;;;;;;;5064296;28;20367;-58
2023/01/21 07:08:15;;;;;;;71.97;23.83;;;;;;;;;;5065492;28;20124;-58
2023/01/21 07:10:40;;;;;;;80.50;24.63;;;;;;;;;;5064944;28;20036;-58
2023/01/21 07:13:05;;;;;;;77.85;24.05;;;;;;;;;;5065795;28;20108;-58
2023/01/21 07:15:30;;;;;;;73.65;24.33;;;;;;;;;;5063992;28;20387;-58
2023/01/21 07:17:56;;;;;;;68.43;25.33;;;;;;;;;;5066012;28;20158;-58
2023/01/21 07:20:21;;;;;;;70.00;26.30;;;;;;;;;;5066049;28;20025;-58
2023/01/21 07:22:46;;;;;;;70.63;24.42;;;;;;;;;;5066528;28;20021;-58
2023/01/21 07:25:12;;;;;;;70.80;24.42;;;;;;;;;;5066515;28;20103;-58
2023/01/21 07:27:37;;;;;;;76.22;23.83;;;;;;;;;;5065928;28;20036;-57
2023/01/21 07:30:02;;;;;;;64.53;23.52;;;;;;;;;;5066135;28;20345;-58
2023/01/21 07:32:27;;;;;;;69.85;24.45;;;;;;;;;;5060351;28;20032;-57
2023/01/21 07:34:52;;;;;;;76.18;25.30;;;;;;;;;;5061909;28;20430;-58
2023/01/21 07:37:18;;;;;;;86.75;27.60;;;;;;;;;;5064892;28;20074;-58
2023/01/21 07:39:43;;;;;;;88.47;30.98;;;;;;;;;;5065744;28;20028;-58
2023/01/21 07:42:09;;;;;;;84.28;27.88;;;;;;;;;;5063664;28;20463;-57
2023/01/21 07:44:34;;;;;;;92.82;31.23;;;;;;;;;;5063494;28;20024;-57
2023/01/21 07:46:59;;;;;;;79.78;27.88;;;;;;;;;;5065296;28;20387;-59
2023/01/21 07:49:24;;;;;;;70.50;24.00;;;;;;;;;;5064904;28;20328;-59
2023/01/21 07:51:54;;;;;;;81.15;25.85;;;;;;;;;;5064140;28;20021;-59
2023/01/21 07:54:19;;;;;;;86.50;27.58;;;;;;;;;;5065086;28;20031;-59
2023/01/21 07:56:44;;;;;;;74.13;22.67;;;;;;;;;;5063689;28;20437;-59
2023/01/21 07:59:10;;;;;;;76.68;26.42;;;;;;;;;;5064121;28;20032;-59
2023/01/21 08:01:35;;;;;;;75.95;26.90;;;;;;;;;;5066072;28;20052;-58
2023/01/21 08:04:00;;;;;;;70.00;24.58;;;;;;;;;;5063916;28;20036;-58
2023/01/21 08:06:26;;;;;;;78.35;24.05;;;;;;;;;;5065863;28;20021;-59
2023/01/21 08:08:51;;;;;;;66.93;24.05;;;;;;;;;;5065152;28;20060;-58
2023/01/21 08:11:17;;;;;;;76.68;24.88;;;;;;;;;;5064764;28;20414;-58
2023/01/21 08:13:43;;;;;;;81.80;26.20;;;;;;;;;;5063227;28;20028;-58
2023/01/21 08:16:10;;;;;;;95.40;25.65;;;;;;;;;;5065396;28;20024;-58
2023/01/21 08:18:35;;;;;;;68.00;23.38;;;;;;;;;;5065389;28;20035;-58
2023/01/21 08:21:01;;;;;;;74.50;26.10;;;;;;;;;;5066042;28;20040;-58
2023/01/21 08:23:26;;;;;;;63.67;23.10;;;;;;;;;;5065825;28;20400;-58
2023/01/21 08:25:51;;;;;;;71.45;26.38;;;;;;;;;;5065330;28;20115;-58
2023/01/21 08:28:17;;;;;;;76.75;29.17;;;;;;;;;;5065742;28;20463;-58
2023/01/21 08:30:42;;;;;;;75.95;27.13;;;;;;;;;;5081322;28;20386;-58
2023/01/21 08:33:07;;;;;;;89.88;28.58;;;;;;;;;;5065192;28;20025;-58
2023/01/21 08:35:33;;;;;;;70.43;27.88;;;;;;;;;;5065837;28;20025;-57
2023/01/21 08:37:58;;;;;;;78.80;30.25;;;;;;;;;;5065804;28;20096;-57
2023/01/21 08:40:25;;;;;;;71.88;26.10;;;;;;;;;;5061709;28;20107;-57
2023/01/21 08:42:51;;;;;;;77.28;28.42;;;;;;;;;;5067334;28;20070;-57
2023/01/21 08:45:16;;;;;;;72.40;26.17;;;;;;;;;;5067571;28;20475;-58
2023/01/21 08:47:41;;;;;;;72.95;27.08;;;;;;;;;;5069943;28;20055;-57
2023/01/21 08:50:08;;;;;;;81.25;28.50;;;;;;;;;;5068836;28;20040;-56
2023/01/21 08:52:36;;;;;;;68.45;25.95;;;;;;;;;;5065514;28;20151;-58
2023/01/21 08:55:01;;;;;;;85.32;31.27;;;;;;;;;;5068484;28;20052;-57
2023/01/21 08:57:27;;;;;;;90.45;29.38;;;;;;;;;;5067863;28;20449;-57
2023/01/21 08:59:52;;;;;;;64.32;22.23;;;;;;;;;;5068957;28;20036;-57
2023/01/21 09:02:17;;;;;;;67.82;23.67;;;;;;;;;;5069027;28;20465;-58
2023/01/21 09:04:42;;;;;;;71.35;24.75;;;;;;;;;;5064384;28;20403;-57
2023/01/21 09:07:08;;;;;;;70.20;22.92;;;;;;;;;;5064241;28;20096;-58
2023/01/21 09:09:33;;;;;;;62.08;21.83;;;;;;;;;;5066811;28;20520;-59
2023/01/21 09:11:58;;;;;;;60.42;22.27;;;;;;;;;;5067084;28;20028;-57
2023/01/21 09:14:23;;;;;;;58.33;21.38;;;;;;;;;;5069712;28;20158;-57
2023/01/21 09:16:49;;;;;;;70.03;23.77;;;;;;;;;;5068055;28;20435;-57
2023/01/21 09:19:14;;;;;;;55.85;21.83;;;;;;;;;;5068474;28;20020;-57
2023/01/21 09:21:39;;;;;;;73.65;23.98;;;;;;;;;;5068644;28;20028;-56
2023/01/21 09:24:04;;;;;;;59.88;22.27;;;;;;;;;;5069401;28;20085;-56
2023/01/21 09:26:30;;;;;;;65.78;21.17;;;;;;;;;;5066261;28;20017;-57
2023/01/21 09:28:56;;;;;;;69.55;23.35;;;;;;;;;;5068566;28;20032;-57
2023/01/21 09:31:22;;;;;;;60.70;23.52;;;;;;;;;;5068885;28;20289;-59
2023/01/21 09:33:48;;;;;;;61.80;25.00;;;;;;;;;;5068464;28;20033;-57
2023/01/21 09:36:14;;;;;;;64.32;26.40;;;;;;;;;;5068194;28;20769;-59
2023/01/21 09:38:43;;;;;;;61.95;24.30;;;;;;;;;;5067799;28;20359;-57
2023/01/21 09:41:18;;;;;;;84.95;29.10;;;;;;;;;;5067751;28;20111;-59
2023/01/21 09:43:44;;;;;;;73.32;28.50;;;;;;;;;;5064421;28;20082;-57
2023/01/21 09:46:20;;;;;;;65.93;25.48;;;;;;;;;;5067124;28;20421;-57
2023/01/21 09:48:45;;;;;;;84.97;30.77;;;;;;;;;;5065933;28;20074;-57
2023/01/21 09:51:21;;;;;;;75.70;27.55;;;;;;;;;;5063328;28;20171;-57
2023/01/21 09:53:49;;;;;;;67.53;25.00;;;;;;;;;;5066623;28;20025;-57
2023/01/21 09:56:38;;;;;;;69.45;25.88;;;;;;;;;;5062364;28;20452;-57
2023/01/21 09:59:05;;;;;;;88.55;32.60;;;;;;;;;;5065805;28;20046;-57
2023/01/21 10:01:31;;;;;;;88.20;30.15;;;;;;;;;;5066588;28;20115;-59
2023/01/21 10:04:15;;;;;;;61.50;24.65;;;;;;;;;;5049487;28;20479;-58
2023/01/21 10:06:54;;;;;;;107.97;32.40;;;;;;;;;;5062270;28;20021;-57
2023/01/21 10:09:19;;;;;;;84.70;28.35;;;;;;;;;;5063503;28;20044;-58
2023/01/21 10:11:50;;;;;;;79.03;31.98;;;;;;;;;;5067634;28;20047;-57
2023/01/21 10:14:23;;;;;;;66.00;24.65;;;;;;;;;;5064486;28;20055;-58
2023/01/21 10:17:01;;;;;;;67.45;26.05;;;;;;;;;;5066582;28;20115;-57
2023/01/21 10:19:34;;;;;;;66.53;23.48;;;;;;;;;;5064540;28;20104;-58
2023/01/21 10:22:01;;;;;;;66.65;25.55;;;;;;;;;;5064594;28;20032;-57
2023/01/21 10:24:28;;;;;;;54.13;22.88;;;;;;;;;;5063698;28;20020;-58
2023/01/21 10:26:53;;;;;;;48.58;20.88;;;;;;;;;;5068106;28;20032;-58
2023/01/21 10:29:20;;;;;;;59.40;21.50;;;;;;;;;;5067482;28;20017;-58
2023/01/21 10:31:58;;;;;;;58.42;22.25;;;;;;;;;;5068108;28;20060;-56
2023/01/21 10:34:23;;;;;;;44.15;19.38;;;;;;;;;;5064562;28;20516;-58
2023/01/21 10:36:52;;;;;;;42.10;18.27;;;;;;;;;;5066065;28;20036;-58
2023/01/21 10:39:18;;;;;;;51.67;20.87;;;;;;;;;;5059490;28;20031;-58
2023/01/21 10:41:46;;;;;;;45.58;19.10;;;;;;;;;;5067285;28;20273;-58
2023/01/21 10:44:17;;;;;;;51.17;20.65;;;;;;;;;;5061958;28;20016;-57
2023/01/21 10:46:42;;;;;;;41.85;18.65;;;;;;;;;;5066614;28;20021;-58
2023/01/21 10:49:28;;;;;;;40.75;19.00;;;;;;;;;;5065866;28;20090;-58
2023/01/21 10:52:03;;;;;;;44.40;19.98;;;;;;;;;;5062944;28;20115;-58
2023/01/21 10:54:34;;;;;;;51.17;20.30;;;;;;;;;;5067019;28;20031;-58
2023/01/21 10:57:18;;;;;;;43.05;19.05;;;;;;;;;;5066224;28;20024;-58
2023/01/21 10:59:43;;;;;;;57.92;24.85;;;;;;;;;;5066160;28;20032;-58
2023/01/21 11:02:08;;;;;;;55.83;21.58;;;;;;;;;;5066391;28;20374;-58
2023/01/21 11:04:34;;;;;;;47.85;19.77;;;;;;;;;;5065767;28;20024;-58
2023/01/21 11:07:00;;;;;;;56.45;23.77;;;;;;;;;;5065430;28;20462;-58
2023/01/21 11:09:27;;;;;;;51.53;21.88;;;;;;;;;;5064475;28;20041;-61
2023/01/21 11:11:52;;;;;;;48.90;20.05;;;;;;;;;;5061072;28;20036;-58
2023/01/21 11:14:18;;;;;;;34.72;17.38;;;;;;;;;;5059697;28;20127;-58
2023/01/21 11:16:46;;;;;;;53.00;20.98;;;;;;;;;;5060444;28;20613;-57
2023/01/21 11:19:13;;;;;;;98.78;32.67;;;;;;;;;;5060891;28;20349;-58
2023/01/21 11:21:41;;;;;;;48.05;18.75;;;;;;;;;;5062324;28;20123;-58
2023/01/21 11:24:22;;;;;;;47.08;20.88;;;;;;;;;;5063429;28;20025;-57
2023/01/21 11:26:51;;;;;;;58.92;24.73;;;;;;;;;;5060368;28;20142;-57
2023/01/21 11:29:17;;;;;;;45.88;19.58;;;;;;;;;;5066660;28;20031;-57
2023/01/21 11:31:43;;;;;;;47.30;18.85;;;;;;;;;;5059290;28;20032;-57
2023/01/21 11:34:12;;;;;;;36.85;16.90;;;;;;;;;;5068270;28;20401;-58
2023/01/21 11:36:38;;;;;;;35.97;17.85;;;;;;;;;;5062755;28;20109;-58
2023/01/21 11:39:04;;;;;;;42.05;17.33;;;;;;;;;;5066653;28;20070;-58
2023/01/21 11:41:29;;;;;;;42.50;18.05;;;;;;;;;;5069941;28;20136;-58
2023/01/21 11:44:15;;;;;;;49.22;17.70;;;;;;;;;;5060762;28;20292;-57
2023/01/21 11:46:40;;;;;;;32.45;15.77;;;;;;;;;;5064779;28;20085;-58
2023/01/21 11:49:05;;;;;;;35.65;16.98;;;;;;;;;;5062517;28;20024;-58
2023/01/21 11:51:31;;;;;;;39.25;17.42;;;;;;;;;;5060936;28;20522;-59
2023/01/21 11:54:15;;;;;;;39.45;19.33;;;;;;;;;;5057772;28;20099;-58
2023/01/21 11:56:44;;;;;;;35.70;17.25;;;;;;;;;;5057467;28;20351;-58
2023/01/21 11:59:29;;;;;;;39.00;16.67;;;;;;;;;;5061014;28;20025;-58
2023/01/21 12:01:56;;;;;;;35.97;15.68;;;;;;;;;;5064865;28;20093;-59
2023/01/21 12:04:21;;;;;;;40.15;19.60;;;;;;;;;;5061682;28;20133;-59
2023/01/21 12:06:47;;;;;;;34.38;16.13;;;;;;;;;;5062025;28;20028;-58
2023/01/21 12:09:16;;;;;;;35.20;17.52;;;;;;;;;;5063428;28;20386;-58
2023/01/21 12:11:41;;;;;;;35.85;16.00;;;;;;;;;;5064399;28;20650;-59
2023/01/21 12:14:16;;;;;;;39.15;17.95;;;;;;;;;;5063340;28;20081;-58
2023/01/21 12:16:51;;;;;;;30.42;14.57;;;;;;;;;;5058453;28;20016;-58
2023/01/21 12:19:25;;;;;;;38.22;16.88;;;;;;;;;;5062833;28;20068;-59
2023/01/21 12:22:06;;;;;;;37.72;15.40;;;;;;;;;;5062254;28;20510;-59
2023/01/21 12:24:31;;;;;;;;;;;;;;;;;;5064265;28;20028;-59
2023/01/21 12:27:00;;;;;;;29.50;11.77;;;;;;;;;;5063859;28;19920;-59
2023/01/21 12:29:44;;;;;;;36.78;16.67;;;;;;;;;;5062612;28;20044;-59
2023/01/21 12:32:11;;;;;;;35.03;15.48;;;;;;;;;;5075615;28;20111;-61
2023/01/21 12:34:39;;;;;;;29.65;15.05;;;;;;;;;;5061991;28;20023;-59
2023/01/21 12:37:11;;;;;;;37.65;16.42;;;;;;;;;;5090224;28;20152;-59
2023/01/21 12:39:36;;;;;;;36.90;17.52;;;;;;;;;;5071342;28;20020;-59
2023/01/21 12:42:10;;;;;;;33.30;14.70;;;;;;;;;;5061473;28;20036;-58
2023/01/21 12:44:37;;;;;;;31.80;14.48;;;;;;;;;;5063573;28;20631;-58
2023/01/21 12:47:09;;;;;;;35.22;14.85;;;;;;;;;;5061121;28;20459;-58
2023/01/21 12:49:43;;;;;;;24.70;12.10;;;;;;;;;;5059754;28;20025;-59
2023/01/21 12:52:18;;;;;;;36.40;15.77;;;;;;;;;;5060692;28;20039;-59
2023/01/21 12:54:48;;;;;;;33.53;15.73;;;;;;;;;;5068152;28;20025;-58
2023/01/21 12:57:27;;;;;;;28.10;12.60;;;;;;;;;;5059457;28;20020;-59
2023/01/21 12:59:56;;;;;;;36.35;16.15;;;;;;;;;;5056630;28;20861;-59
2023/01/21 13:02:32;;;;;;;30.45;13.80;;;;;;;;;;5064742;28;20048;-59
2023/01/21 13:05:00;;;;;;;36.13;15.73;;;;;;;;;;5060863;28;20086;-58
2023/01/21 13:07:35;;;;;;;30.90;13.90;;;;;;;;;;5065094;28;20089;-59
2023/01/21 13:10:03;;;;;;;32.17;15.80;;;;;;;;;;5062058;28;20062;-59
2023/01/21 13:12:29;;;;;;;31.08;13.35;;;;;;;;;;5061480;28;20726;-59
2023/01/21 13:15:13;;;;;;;30.42;14.80;;;;;;;;;;5059646;28;20029;-59
2023/01/21 13:17:40;;;;;;;33.47;15.52;;;;;;;;;;5067619;28;20497;-59
2023/01/21 13:20:13;;;;;;;32.88;15.32;;;;;;;;;;5064547;28;20020;-59
2023/01/21 13:22:43;;;;;;;27.20;13.07;;;;;;;;;;5057748;28;20048;-59
2023/01/21 13:25:18;;;;;;;32.13;15.18;;;;;;;;;;5060284;28;20024;-59
2023/01/21 13:28:02;;;;;;;23.88;12.23;;;;;;;;;;5064837;28;20031;-59
2023/01/21 13:30:46;;;;;;;26.85;13.52;;;;;;;;;;5062998;28;20602;-59
2023/01/21 13:33:14;;;;;;;29.27;15.07;;;;;;;;;;5066299;28;20029;-59
2023/01/21 13:35:57;;;;;;;25.27;13.55;;;;;;;;;;5067542;28;20943;-59
2023/01/21 13:38:26;;;;;;;31.00;15.18;;;;;;;;;;5063954;28;20056;-58
2023/01/21 13:41:10;;;;;;;33.63;15.63;;;;;;;;;;5064052;28;20020;-58
2023/01/21 13:44:01;;;;;;;32.65;16.13;;;;;;;;;;5067813;28;20099;-58
2023/01/21 13:46:34;;;;;;;47.88;19.85;;;;;;;;;;5046451;28;20060;-58
2023/01/21 13:49:02;;;;;;;39.20;18.15;;;;;;;;;;5062538;28;20064;-58
2023/01/21 13:51:30;;;;;;;38.22;16.77;;;;;;;;;;5068809;28;20389;-58
2023/01/21 13:54:02;;;;;;;33.58;17.38;;;;;;;;;;5064083;28;20580;-59
2023/01/21 13:56:31;;;;;;;35.00;17.23;;;;;;;;;;5065763;28;20189;-58
2023/01/21 13:59:11;;;;;;;35.50;16.77;;;;;;;;;;5062055;28;20021;-58
2023/01/21 14:01:43;;;;;;;34.33;14.68;;;;;;;;;;5063100;28;20024;-58
2023/01/21 14:04:10;;;;;;;39.67;16.90;;;;;;;;;;5063680;28;20032;-58
2023/01/21 14:06:38;;;;;;;33.10;15.32;;;;;;;;;;5066864;28;20021;-58
2023/01/21 14:09:06;;;;;;;29.42;14.20;;;;;;;;;;5067077;28;20127;-58
2023/01/21 14:11:52;;;;;;;30.50;15.18;;;;;;;;;;5065267;28;20482;-58
2023/01/21 14:14:17;;;;;;;30.40;14.80;;;;;;;;;;5058165;28;20028;-58
2023/01/21 14:17:01;;;;;;;32.50;15.63;;;;;;;;;;5066680;28;20032;-58
2023/01/21 14:19:35;;;;;;;32.60;15.02;;;;;;;;;;5060267;28;21875;-58
2023/01/21 14:22:36;;;;;;;31.08;15.27;;;;;;;;;;5055705;28;20031;-58